sensor_id;sensor_type;location;lat;lon;timestamp;pressure;altitude;pressure_sealevel;temperature;humidity
19576;BME280;41589;51.196;7.074;2023-04-02T00:03:12;98095.53;;;7.47;100.00
19576;BME280;41589;51.196;7.074;2023-04-02T00:08:37;98111.25;;;7.36;100.00
19576;BME280;41589;51.196;7.074;2023-04-02T00:14:03;98120.59;;;7.42;100.00
19576;BME280;41589;51.196;7.074;2023-04-02T00:19:34;98137.66;;;7.07;100.00
19576;BME280;41589;51.196;7.074;2023-04-02T00:24:42;98137.94;;;7.00;100.00
19576;BME280;41589;51.196;7.074;2023-04-02T00:29:53;98144.59;;;6.93;100.00
19576;BME280;41589;51.196;7.074;2023-04-02T00:34:55;98172.28;;;6.60;100.00
19576;BME280;41589;51.196;7.074;2023-04-02T00:40:02;98177.31;;;6.65;100.00
19576;BME280;41589;51.196;7.074;2023-04-02T00:45:39;98187.97;;;6.58;100.00
19576;BME280;41589;51.196;7.074;2023-04-02T00:51:13;98185.38;;;6.73;100.00
19576;BME280;41589;51.196;7.074;2023-04-02T00:56:27;98181.03;;;6.41;100.00
19576;BME280;41589;51.196;7.074;2023-04-02T01:01:55;98204.66;;;6.39;100.00
19576;BME280;41589;51.196;7.074;2023-04-02T01:07:09;98210.88;;;6.44;100.00
19576;BME280;41589;51.196;7.074;2023-04-02T01:23:43;98244.38;;;6.34;100.00
19576;BME280;41589;51.196;7.074;2023-04-02T01:29:12;98252.31;;;6.36;100.00
19576;BME280;41589;51.196;7.074;2023-04-02T01:34:18;98263.31;;;6.18;100.00
19576;BME280;41589;51.196;7.074;2023-04-02T01:44:30;98279.03;;;6.02;100.00
19576;BME280;41589;51.196;7.074;2023-04-02T01:49:33;98278.69;;;6.22;100.00
19576;BME280;41589;51.196;7.074;2023-04-02T01:54:41;98290.56;;;5.92;100.00
19576;BME280;41589;51.196;7.074;2023-04-02T01:59:43;98310.22;;;5.88;100.00
19576;BME280;41589;51.196;7.074;2023-04-02T02:04:50;98309.31;;;6.04;100.00
19576;BME280;41589;51.196;7.074;2023-04-02T02:09:54;98317.53;;;5.73;100.00
19576;BME280;41589;51.196;7.074;2023-04-02T02:14:55;98324.47;;;5.56;100.00
19576;BME280;41589;51.196;7.074;2023-04-02T02:19:59;98336.63;;;5.74;100.00
19576;BME280;41589;51.196;7.074;2023-04-02T02:25:03;98358.88;;;5.52;100.00
19576;BME280;41589;51.196;7.074;2023-04-02T02:41:18;98381.09;;;5.43;100.00
19576;BME280;41589;51.196;7.074;2023-04-02T02:46:24;98385.66;;;5.50;100.00
19576;BME280;41589;51.196;7.074;2023-04-02T02:57:20;98402.72;;;5.27;100.00
19576;BME280;41589;51.196;7.074;2023-04-02T03:02:28;98419.56;;;5.10;100.00
19576;BME280;41589;51.196;7.074;2023-04-02T03:07:37;98420.22;;;5.02;100.00
19576;BME280;41589;51.196;7.074;2023-04-02T03:12:53;98428.84;;;5.20;100.00
19576;BME280;41589;51.196;7.074;2023-04-02T03:23:25;98453.72;;;4.85;100.00
19576;BME280;41589;51.196;7.074;2023-04-02T03:28:29;98459.59;;;4.75;100.00
19576;BME280;41589;51.196;7.074;2023-04-02T03:34:10;98468.44;;;4.86;100.00
19576;BME280;41589;51.196;7.074;2023-04-02T03:39:17;98479.22;;;4.71;100.00
19576;BME280;41589;51.196;7.074;2023-04-02T03:44:38;98489.44;;;4.45;100.00
19576;BME280;41589;51.196;7.074;2023-04-02T03:49:49;98498.81;;;4.68;100.00
19576;BME280;41589;51.196;7.074;2023-04-02T03:54:55;98523.22;;;4.63;100.00
19576;BME280;41589;51.196;7.074;2023-04-02T04:00:19;98525.59;;;4.49;100.00
19576;BME280;41589;51.196;7.074;2023-04-02T04:05:34;98535.94;;;4.48;100.00
19576;BME280;41589;51.196;7.074;2023-04-02T04:10:48;98551.25;;;4.24;100.00
19576;BME280;41589;51.196;7.074;2023-04-02T04:16:03;98551.19;;;4.44;100.00
19576;BME280;41589;51.196;7.074;2023-04-02T04:28:00;98602.47;;;4.30;100.00
19576;BME280;41589;51.196;7.074;2023-04-02T04:32:42;98609.63;;;4.47;100.00
19576;BME280;41589;51.196;7.074;2023-04-02T04:38:04;98598.75;;;4.53;100.00
19576;BME280;41589;51.196;7.074;2023-04-02T04:43:14;98618.41;;;4.29;100.00
19576;BME280;41589;51.196;7.074;2023-04-02T04:48:23;98626.97;;;4.55;100.00
19576;BME280;41589;51.196;7.074;2023-04-02T04:53:28;98641.66;;;4.39;100.00
19576;BME280;41589;51.196;7.074;2023-04-02T04:58:34;98661.56;;;4.21;100.00
19576;BME280;41589;51.196;7.074;2023-04-02T05:08:52;98688.16;;;4.26;100.00
19576;BME280;41589;51.196;7.074;2023-04-02T05:14:36;98680.84;;;4.12;100.00
19576;BME280;41589;51.196;7.074;2023-04-02T05:19:44;98709.72;;;4.02;100.00
19576;BME280;41589;51.196;7.074;2023-04-02T05:35:32;98741.03;;;4.46;100.00
19576;BME280;41589;51.196;7.074;2023-04-02T05:40:41;98742.56;;;4.30;100.00
19576;BME280;41589;51.196;7.074;2023-04-02T05:45:46;98754.75;;;4.56;100.00
19576;BME280;41589;51.196;7.074;2023-04-02T05:50:55;98790.38;;;4.29;100.00
19576;BME280;41589;51.196;7.074;2023-04-02T05:56:21;98774.13;;;4.24;100.00
19576;BME280;41589;51.196;7.074;2023-04-02T06:01:43;98787.50;;;4.32;100.00
19576;BME280;41589;51.196;7.074;2023-04-02T06:07:04;98838.59;;;3.79;100.00
19576;BME280;41589;51.196;7.074;2023-04-02T06:12:34;98818.38;;;4.22;100.00
19576;BME280;41589;51.196;7.074;2023-04-02T06:17:46;98835.50;;;4.20;100.00
19576;BME280;41589;51.196;7.074;2023-04-02T06:23:01;98843.03;;;4.00;100.00
19576;BME280;41589;51.196;7.074;2023-04-02T06:28:11;98862.38;;;3.60;100.00
19576;BME280;41589;51.196;7.074;2023-04-02T06:33:22;98862.69;;;3.66;100.00
19576;BME280;41589;51.196;7.074;2023-04-02T06:38:31;98896.88;;;3.66;100.00
19576;BME280;41589;51.196;7.074;2023-04-02T06:43:38;98905.94;;;3.47;100.00
19576;BME280;41589;51.196;7.074;2023-04-02T06:49:14;98901.16;;;3.47;100.00
19576;BME280;41589;51.196;7.074;2023-04-02T06:54:19;98926.69;;;3.42;100.00
19576;BME280;41589;51.196;7.074;2023-04-02T06:59:26;98935.38;;;3.44;100.00
19576;BME280;41589;51.196;7.074;2023-04-02T07:04:27;98950.81;;;3.49;100.00
19576;BME280;41589;51.196;7.074;2023-04-02T07:09:32;98943.59;;;3.55;100.00
19576;BME280;41589;51.196;7.074;2023-04-02T07:14:41;98963.22;;;3.71;100.00
19576;BME280;41589;51.196;7.074;2023-04-02T07:19:45;98968.16;;;3.30;100.00
19576;BME280;41589;51.196;7.074;2023-04-02T07:24:50;98968.72;;;3.48;100.00
19576;BME280;41589;51.196;7.074;2023-04-02T07:29:51;98978.47;;;3.63;100.00
19576;BME280;41589;51.196;7.074;2023-04-02T07:34:54;98998.69;;;3.67;100.00
19576;BME280;41589;51.196;7.074;2023-04-02T07:39:54;99003.88;;;3.35;100.00
19576;BME280;41589;51.196;7.074;2023-04-02T07:44:54;99003.84;;;3.38;100.00
19576;BME280;41589;51.196;7.074;2023-04-02T07:49:58;99006.97;;;3.40;100.00
19576;BME280;41589;51.196;7.074;2023-04-02T07:54:59;99024.41;;;3.14;100.00
19576;BME280;41589;51.196;7.074;2023-04-02T08:00:01;99035.47;;;3.51;100.00
19576;BME280;41589;51.196;7.074;2023-04-02T08:05:01;99059.91;;;3.37;100.00
19576;BME280;41589;51.196;7.074;2023-04-02T08:10:05;99073.50;;;3.62;100.00
19576;BME280;41589;51.196;7.074;2023-04-02T08:15:07;99081.31;;;3.43;100.00
19576;BME280;41589;51.196;7.074;2023-04-02T08:20:14;99090.50;;;3.37;100.00
19576;BME280;41589;51.196;7.074;2023-04-02T08:25:15;99098.84;;;3.71;100.00
19576;BME280;41589;51.196;7.074;2023-04-02T08:30:16;99107.81;;;3.86;100.00
19576;BME280;41589;51.196;7.074;2023-04-02T08:35:17;99112.63;;;3.82;100.00
19576;BME280;41589;51.196;7.074;2023-04-02T08:50:53;99162.44;;;3.38;100.00
19576;BME280;41589;51.196;7.074;2023-04-02T09:01:05;99168.03;;;3.72;100.00
19576;BME280;41589;51.196;7.074;2023-04-02T09:06:10;99187.06;;;3.77;100.00
19576;BME280;41589;51.196;7.074;2023-04-02T09:11:39;99202.22;;;4.11;100.00
19576;BME280;41589;51.196;7.074;2023-04-02T09:16:44;99191.28;;;3.93;100.00
19576;BME280;41589;51.196;7.074;2023-04-02T09:26:52;99202.34;;;4.00;100.00
19576;BME280;41589;51.196;7.074;2023-04-02T09:37:20;99220.72;;;3.94;100.00
19576;BME280;41589;51.196;7.074;2023-04-02T09:42:30;99233.84;;;3.93;100.00
19576;BME280;41589;51.196;7.074;2023-04-02T09:47:31;99261.22;;;4.02;100.00
19576;BME280;41589;51.196;7.074;2023-04-02T09:52:31;99281.59;;;3.95;100.00
19576;BME280;41589;51.196;7.074;2023-04-02T09:57:31;99301.31;;;4.12;100.00
19576;BME280;41589;51.196;7.074;2023-04-02T10:02:32;99284.16;;;4.13;100.00
19576;BME280;41589;51.196;7.074;2023-04-02T10:07:36;99292.56;;;4.44;100.00
19576;BME280;41589;51.196;7.074;2023-04-02T10:12:40;99313.28;;;4.43;100.00
19576;BME280;41589;51.196;7.074;2023-04-02T10:17:42;99305.19;;;4.21;100.00
19576;BME280;41589;51.196;7.074;2023-04-02T10:22:43;99308.06;;;4.79;100.00
19576;BME280;41589;51.196;7.074;2023-04-02T10:27:52;99330.81;;;5.04;100.00
19576;BME280;41589;51.196;7.074;2023-04-02T10:33:02;99347.50;;;5.35;100.00
19576;BME280;41589;51.196;7.074;2023-04-02T10:43:38;99347.31;;;5.72;100.00
19576;BME280;41589;51.196;7.074;2023-04-02T10:48:56;99370.22;;;5.60;100.00
19576;BME280;41589;51.196;7.074;2023-04-02T10:54:12;99372.13;;;5.67;100.00
19576;BME280;41589;51.196;7.074;2023-04-02T10:59:21;99397.41;;;5.29;100.00
19576;BME280;41589;51.196;7.074;2023-04-02T11:09:32;99415.72;;;5.03;100.00
19576;BME280;41589;51.196;7.074;2023-04-02T11:14:36;99421.88;;;5.21;100.00
19576;BME280;41589;51.196;7.074;2023-04-02T11:19:36;99443.56;;;5.07;100.00
19576;BME280;41589;51.196;7.074;2023-04-02T11:24:43;99442.22;;;5.18;100.00
19576;BME280;41589;51.196;7.074;2023-04-02T11:30:05;99451.16;;;5.37;100.00
19576;BME280;41589;51.196;7.074;2023-04-02T11:50:44;99486.13;;;5.75;100.00
19576;BME280;41589;51.196;7.074;2023-04-02T11:56:26;99464.66;;;5.69;100.00
19576;BME280;41589;51.196;7.074;2023-04-02T12:11:53;99482.72;;;5.61;100.00
19576;BME280;41589;51.196;7.074;2023-04-02T12:16:55;99485.44;;;5.95;100.00
19576;BME280;41589;51.196;7.074;2023-04-02T12:21:57;99519.81;;;5.92;100.00
19576;BME280;41589;51.196;7.074;2023-04-02T12:27:09;99515.00;;;5.65;100.00
19576;BME280;41589;51.196;7.074;2023-04-02T12:32:19;99527.53;;;5.53;98.03
19576;BME280;41589;51.196;7.074;2023-04-02T12:37:26;99554.69;;;5.49;100.00
19576;BME280;41589;51.196;7.074;2023-04-02T12:42:31;99527.34;;;5.68;100.00
19576;BME280;41589;51.196;7.074;2023-04-02T12:47:32;99534.25;;;5.87;100.00
19576;BME280;41589;51.196;7.074;2023-04-02T12:52:32;99548.72;;;6.08;100.00
19576;BME280;41589;51.196;7.074;2023-04-02T12:57:34;99541.69;;;6.24;100.00
19576;BME280;41589;51.196;7.074;2023-04-02T13:02:45;99552.50;;;6.22;100.00
19576;BME280;41589;51.196;7.074;2023-04-02T13:07:46;99566.44;;;6.25;98.56
19576;BME280;41589;51.196;7.074;2023-04-02T13:12:47;99569.56;;;6.00;100.00
19576;BME280;41589;51.196;7.074;2023-04-02T13:18:04;99566.72;;;5.77;99.10
19576;BME280;41589;51.196;7.074;2023-04-02T13:23:35;99576.88;;;5.94;100.00
19576;BME280;41589;51.196;7.074;2023-04-02T13:28:36;99590.78;;;5.67;100.00
19576;BME280;41589;51.196;7.074;2023-04-02T13:33:36;99598.63;;;5.45;100.00
19576;BME280;41589;51.196;7.074;2023-04-02T13:38:37;99593.00;;;5.83;100.00
19576;BME280;41589;51.196;7.074;2023-04-02T13:43:37;99599.16;;;5.98;100.00
19576;BME280;41589;51.196;7.074;2023-04-02T13:48:37;99613.34;;;5.84;100.00
19576;BME280;41589;51.196;7.074;2023-04-02T13:53:38;99612.53;;;5.52;99.60
19576;BME280;41589;51.196;7.074;2023-04-02T13:58:39;99631.66;;;5.54;100.00
19576;BME280;41589;51.196;7.074;2023-04-02T14:03:40;99631.63;;;5.20;99.22
19576;BME280;41589;51.196;7.074;2023-04-02T14:14:28;99640.16;;;5.40;100.00
19576;BME280;41589;51.196;7.074;2023-04-02T14:25:05;99665.41;;;5.29;100.00
19576;BME280;41589;51.196;7.074;2023-04-02T14:35:37;99669.19;;;5.49;100.00
19576;BME280;41589;51.196;7.074;2023-04-02T14:40:53;99687.06;;;5.56;100.00
19576;BME280;41589;51.196;7.074;2023-04-02T14:46:03;99699.34;;;5.65;98.16
19576;BME280;41589;51.196;7.074;2023-04-02T14:51:12;99681.34;;;5.32;100.00
19576;BME280;41589;51.196;7.074;2023-04-02T14:56:14;99691.81;;;5.59;100.00
19576;BME280;41589;51.196;7.074;2023-04-02T15:01:24;99700.34;;;5.44;100.00
19576;BME280;41589;51.196;7.074;2023-04-02T15:06:30;99701.78;;;5.63;100.00
19576;BME280;41589;51.196;7.074;2023-04-02T15:11:38;99689.47;;;5.91;100.00
19576;BME280;41589;51.196;7.074;2023-04-02T15:16:42;99707.84;;;5.89;99.28
19576;BME280;41589;51.196;7.074;2023-04-02T15:43:15;99721.09;;;5.81;99.49
19576;BME280;41589;51.196;7.074;2023-04-02T15:53:40;99742.84;;;6.00;95.09
19576;BME280;41589;51.196;7.074;2023-04-02T16:04:35;99740.78;;;6.08;100.00
19576;BME280;41589;51.196;7.074;2023-04-02T16:09:47;99745.50;;;6.15;98.35
19576;BME280;41589;51.196;7.074;2023-04-02T16:14:54;99748.41;;;6.04;98.72
19576;BME280;41589;51.196;7.074;2023-04-02T16:20:25;99766.41;;;5.99;99.66
19576;BME280;41589;51.196;7.074;2023-04-02T16:25:31;99775.50;;;5.69;92.68
19576;BME280;41589;51.196;7.074;2023-04-02T16:30:45;99772.44;;;5.98;98.74
19576;BME280;41589;51.196;7.074;2023-04-02T16:41:27;99785.78;;;6.17;100.00
19576;BME280;41589;51.196;7.074;2023-04-02T16:46:41;99795.94;;;6.00;100.00
19576;BME280;41589;51.196;7.074;2023-04-02T17:08:08;99825.59;;;5.91;99.74
19576;BME280;41589;51.196;7.074;2023-04-02T17:18:37;99845.72;;;5.75;98.59
19576;BME280;41589;51.196;7.074;2023-04-02T17:23:45;99849.72;;;5.74;97.13
19576;BME280;41589;51.196;7.074;2023-04-02T17:28:48;99850.13;;;5.69;94.75
19576;BME280;41589;51.196;7.074;2023-04-02T17:33:50;99856.59;;;5.59;98.16
19576;BME280;41589;51.196;7.074;2023-04-02T17:44:34;99879.59;;;5.77;99.96
19576;BME280;41589;51.196;7.074;2023-04-02T18:00:56;99909.59;;;5.07;92.00
19576;BME280;41589;51.196;7.074;2023-04-02T18:11:13;99922.13;;;5.50;100.00
19576;BME280;41589;51.196;7.074;2023-04-02T18:16:28;99924.16;;;5.43;100.00
19576;BME280;41589;51.196;7.074;2023-04-02T18:21:42;99932.94;;;5.41;100.00
19576;BME280;41589;51.196;7.074;2023-04-02T18:52:24;99961.84;;;5.03;99.71
19576;BME280;41589;51.196;7.074;2023-04-02T18:57:29;99973.41;;;4.98;100.00
19576;BME280;41589;51.196;7.074;2023-04-02T19:07:36;99980.84;;;5.29;100.00
19576;BME280;41589;51.196;7.074;2023-04-02T19:12:39;99980.06;;;5.29;100.00
19576;BME280;41589;51.196;7.074;2023-04-02T19:17:47;99990.03;;;5.26;100.00
19576;BME280;41589;51.196;7.074;2023-04-02T19:28:22;100006.47;;;5.10;100.00
19576;BME280;41589;51.196;7.074;2023-04-02T19:38:45;100026.75;;;5.17;100.00
19576;BME280;41589;51.196;7.074;2023-04-02T19:43:48;100039.97;;;5.03;100.00
19576;BME280;41589;51.196;7.074;2023-04-02T19:48:54;100030.38;;;5.07;100.00
19576;BME280;41589;51.196;7.074;2023-04-02T19:53:59;100048.28;;;5.17;100.00
19576;BME280;41589;51.196;7.074;2023-04-02T19:59:00;100047.91;;;5.15;100.00
19576;BME280;41589;51.196;7.074;2023-04-02T20:04:01;100055.13;;;5.09;100.00
19576;BME280;41589;51.196;7.074;2023-04-02T20:09:03;100050.75;;;5.01;100.00
19576;BME280;41589;51.196;7.074;2023-04-02T20:14:04;100060.31;;;5.00;100.00
19576;BME280;41589;51.196;7.074;2023-04-02T20:19:05;100058.72;;;5.02;100.00
19576;BME280;41589;51.196;7.074;2023-04-02T20:24:06;100069.06;;;4.98;100.00
19576;BME280;41589;51.196;7.074;2023-04-02T20:29:06;100060.34;;;4.89;100.00
19576;BME280;41589;51.196;7.074;2023-04-02T20:34:08;100056.38;;;4.83;100.00
19576;BME280;41589;51.196;7.074;2023-04-02T20:39:11;100074.72;;;4.80;100.00
19576;BME280;41589;51.196;7.074;2023-04-02T20:44:18;100083.88;;;4.88;100.00
19576;BME280;41589;51.196;7.074;2023-04-02T20:49:18;100091.03;;;4.85;100.00
19576;BME280;41589;51.196;7.074;2023-04-02T20:54:18;100094.63;;;4.86;100.00
19576;BME280;41589;51.196;7.074;2023-04-02T20:59:19;100096.59;;;4.92;100.00
19576;BME280;41589;51.196;7.074;2023-04-02T21:04:19;100114.16;;;4.82;100.00
19576;BME280;41589;51.196;7.074;2023-04-02T21:09:21;100117.75;;;4.76;100.00
19576;BME280;41589;51.196;7.074;2023-04-02T21:14:21;100121.72;;;4.60;100.00
19576;BME280;41589;51.196;7.074;2023-04-02T21:19:22;100121.31;;;4.44;100.00
19576;BME280;41589;51.196;7.074;2023-04-02T21:24:22;100126.47;;;4.35;100.00
19576;BME280;41589;51.196;7.074;2023-04-02T21:29:22;100126.50;;;4.28;100.00
19576;BME280;41589;51.196;7.074;2023-04-02T21:34:23;100122.91;;;4.31;100.00
19576;BME280;41589;51.196;7.074;2023-04-02T21:39:23;100132.44;;;4.19;100.00
19576;BME280;41589;51.196;7.074;2023-04-02T21:44:24;100129.25;;;4.17;100.00
19576;BME280;41589;51.196;7.074;2023-04-02T21:49:24;100133.63;;;4.11;100.00
19576;BME280;41589;51.196;7.074;2023-04-02T21:54:26;100146.34;;;4.05;100.00
19576;BME280;41589;51.196;7.074;2023-04-02T21:59:26;100125.63;;;4.02;100.00
19576;BME280;41589;51.196;7.074;2023-04-02T22:04:27;100136.81;;;4.06;100.00
19576;BME280;41589;51.196;7.074;2023-04-02T22:09:29;100137.16;;;3.97;100.00
19576;BME280;41589;51.196;7.074;2023-04-02T22:14:29;100141.94;;;3.97;100.00
19576;BME280;41589;51.196;7.074;2023-04-02T22:19:30;100142.75;;;3.97;100.00
19576;BME280;41589;51.196;7.074;2023-04-02T22:24:32;100150.28;;;3.93;100.00
19576;BME280;41589;51.196;7.074;2023-04-02T22:29:32;100153.06;;;3.93;100.00
19576;BME280;41589;51.196;7.074;2023-04-02T22:34:32;100159.06;;;3.99;100.00
19576;BME280;41589;51.196;7.074;2023-04-02T22:39:33;100164.63;;;4.02;100.00
19576;BME280;41589;51.196;7.074;2023-04-02T22:44:33;100177.78;;;4.02;100.00
19576;BME280;41589;51.196;7.074;2023-04-02T22:49:34;100174.16;;;3.91;100.00
19576;BME280;41589;51.196;7.074;2023-04-02T22:54:34;100178.50;;;3.85;100.00
19576;BME280;41589;51.196;7.074;2023-04-02T22:59:35;100184.41;;;3.79;100.00
19576;BME280;41589;51.196;7.074;2023-04-02T23:04:35;100183.63;;;3.83;100.00
19576;BME280;41589;51.196;7.074;2023-04-02T23:09:35;100186.44;;;3.86;100.00
19576;BME280;41589;51.196;7.074;2023-04-02T23:14:36;100190.06;;;3.90;100.00
19576;BME280;41589;51.196;7.074;2023-04-02T23:19:36;100186.44;;;3.86;100.00
19576;BME280;41589;51.196;7.074;2023-04-02T23:24:37;100185.63;;;3.82;100.00
19576;BME280;41589;51.196;7.074;2023-04-02T23:29:37;100188.00;;;3.80;100.00
19576;BME280;41589;51.196;7.074;2023-04-02T23:34:37;100184.06;;;3.85;100.00
19576;BME280;41589;51.196;7.074;2023-04-02T23:39:38;100193.59;;;3.84;100.00
19576;BME280;41589;51.196;7.074;2023-04-02T23:44:38;100198.75;;;3.78;100.00
19576;BME280;41589;51.196;7.074;2023-04-02T23:49:38;100193.69;;;3.94;100.00
19576;BME280;41589;51.196;7.074;2023-04-02T23:54:39;100194.88;;;4.00;100.00
19576;BME280;41589;51.196;7.074;2023-04-02T23:59:39;100202.84;;;4.02;100.00
